sensor_id;sensor_type;location;lat;lon;timestamp;pressure;altitude;pressure_sealevel;temperature;humidity
11808;BME280;5961;42.640;23.380;2022-12-07T00:01:50;94004.16;;;6.68;100.00
11808;BME280;5961;42.640;23.380;2022-12-07T00:04:17;94002.63;;;6.67;100.00
11808;BME280;5961;42.640;23.380;2022-12-07T00:06:47;94007.13;;;6.67;100.00
11808;BME280;5961;42.640;23.380;2022-12-07T00:09:17;94002.91;;;6.66;100.00
11808;BME280;5961;42.640;23.380;2022-12-07T00:11:44;94004.16;;;6.68;100.00
11808;BME280;5961;42.640;23.380;2022-12-07T00:14:16;94015.81;;;6.67;100.00
11808;BME280;5961;42.640;23.380;2022-12-07T00:16:43;94000.41;;;6.52;100.00
11808;BME280;5961;42.640;23.380;2022-12-07T00:19:11;93998.19;;;6.37;100.00
11808;BME280;5961;42.640;23.380;2022-12-07T00:21:39;94001.28;;;6.39;100.00
11808;BME280;5961;42.640;23.380;2022-12-07T00:24:08;94001.28;;;6.39;100.00
11808;BME280;5961;42.640;23.380;2022-12-07T00:26:37;93990.28;;;6.37;100.00
11808;BME280;5961;42.640;23.380;2022-12-07T00:29:06;93990.09;;;6.33;100.00
11808;BME280;5961;42.640;23.380;2022-12-07T00:31:34;93923.25;;;5.98;100.00
11808;BME280;5961;42.640;23.380;2022-12-07T00:34:05;93983.13;;;6.37;100.00
11808;BME280;5961;42.640;23.380;2022-12-07T00:36:32;93981.88;;;6.35;100.00
11808;BME280;5961;42.640;23.380;2022-12-07T00:38:59;93997.25;;;6.41;100.00
11808;BME280;5961;42.640;23.380;2022-12-07T00:41:30;94000.69;;;6.42;100.00
11808;BME280;5961;42.640;23.380;2022-12-07T00:43:57;93943.28;;;6.08;100.00
11808;BME280;5961;42.640;23.380;2022-12-07T00:46:24;93997.59;;;6.48;100.00
11808;BME280;5961;42.640;23.380;2022-12-07T00:48:51;93987.34;;;6.47;100.00
11808;BME280;5961;42.640;23.380;2022-12-07T00:51:20;93989.69;;;6.48;100.00
11808;BME280;5961;42.640;23.380;2022-12-07T00:53:47;93964.34;;;6.39;100.00
11808;BME280;5961;42.640;23.380;2022-12-07T00:56:16;93983.78;;;6.51;100.00
11808;BME280;5961;42.640;23.380;2022-12-07T00:58:49;93978.06;;;6.58;100.00
11808;BME280;5961;42.640;23.380;2022-12-07T01:01:16;93980.53;;;6.63;100.00
11808;BME280;5961;42.640;23.380;2022-12-07T01:03:43;93981.94;;;6.60;100.00
11808;BME280;5961;42.640;23.380;2022-12-07T01:06:14;93984.25;;;6.62;100.00
11808;BME280;5961;42.640;23.380;2022-12-07T01:08:41;93990.50;;;6.66;100.00
11808;BME280;5961;42.640;23.380;2022-12-07T01:11:12;93989.41;;;6.67;100.00
11808;BME280;5961;42.640;23.380;2022-12-07T01:13:39;93991.44;;;6.70;100.00
11808;BME280;5961;42.640;23.380;2022-12-07T01:16:10;93988.66;;;6.75;100.00
11808;BME280;5961;42.640;23.380;2022-12-07T01:18:38;93975.28;;;6.80;100.00
11808;BME280;5961;42.640;23.380;2022-12-07T01:21:06;93984.31;;;6.79;100.00
11808;BME280;5961;42.640;23.380;2022-12-07T01:23:34;93976.66;;;6.69;100.00
11808;BME280;5961;42.640;23.380;2022-12-07T01:26:03;93979.94;;;6.66;100.00
11808;BME280;5961;42.640;23.380;2022-12-07T01:28:31;93979.16;;;6.74;100.00
11808;BME280;5961;42.640;23.380;2022-12-07T01:30:59;93974.97;;;6.73;100.00
11808;BME280;5961;42.640;23.380;2022-12-07T01:33:28;93966.56;;;6.71;100.00
11808;BME280;5961;42.640;23.380;2022-12-07T01:36:00;93967.50;;;6.75;100.00
11808;BME280;5961;42.640;23.380;2022-12-07T01:38:28;93976.38;;;6.79;100.00
11808;BME280;5961;42.640;23.380;2022-12-07T01:40:55;93949.19;;;6.70;100.00
11808;BME280;5961;42.640;23.380;2022-12-07T01:43:24;93966.13;;;6.86;100.00
11808;BME280;5961;42.640;23.380;2022-12-07T01:45:52;93963.34;;;6.83;100.00
11808;BME280;5961;42.640;23.380;2022-12-07T01:48:20;93969.09;;;6.85;100.00
11808;BME280;5961;42.640;23.380;2022-12-07T01:50:51;93971.41;;;6.86;100.00
11808;BME280;5961;42.640;23.380;2022-12-07T01:53:20;93966.59;;;6.88;100.00
11808;BME280;5961;42.640;23.380;2022-12-07T01:55:52;93966.44;;;6.85;100.00
11808;BME280;5961;42.640;23.380;2022-12-07T01:58:19;93960.53;;;6.79;100.00
11808;BME280;5961;42.640;23.380;2022-12-07T02:00:46;93956.78;;;6.80;100.00
11808;BME280;5961;42.640;23.380;2022-12-07T02:03:16;93951.84;;;6.79;100.00
11808;BME280;5961;42.640;23.380;2022-12-07T02:05:46;93947.94;;;6.76;100.00
11808;BME280;5961;42.640;23.380;2022-12-07T02:08:15;93949.03;;;6.84;100.00
11808;BME280;5961;42.640;23.380;2022-12-07T02:10:43;93933.19;;;6.75;100.00
11808;BME280;5961;42.640;23.380;2022-12-07T02:13:12;93942.06;;;6.79;100.00
11808;BME280;5961;42.640;23.380;2022-12-07T02:15:47;93941.72;;;6.81;100.00
11808;BME280;5961;42.640;23.380;2022-12-07T02:18:23;93947.94;;;6.85;100.00
11808;BME280;5961;42.640;23.380;2022-12-07T02:20:57;93952.78;;;6.83;100.00
11808;BME280;5961;42.640;23.380;2022-12-07T02:23:55;93955.09;;;6.84;100.00
11808;BME280;5961;42.640;23.380;2022-12-07T02:26:45;93947.34;;;6.79;100.00
11808;BME280;5961;42.640;23.380;2022-12-07T02:29:22;93943.91;;;6.87;100.00
11808;BME280;5961;42.640;23.380;2022-12-07T02:31:55;93945.16;;;6.81;100.00
11808;BME280;5961;42.640;23.380;2022-12-07T02:34:31;93942.06;;;6.79;100.00
11808;BME280;5961;42.640;23.380;2022-12-07T02:37:03;93939.88;;;6.81;100.00
11808;BME280;5961;42.640;23.380;2022-12-07T02:39:39;93879.25;;;6.50;100.00
11808;BME280;5961;42.640;23.380;2022-12-07T02:42:12;93928.06;;;6.87;100.00
11808;BME280;5961;42.640;23.380;2022-12-07T02:44:42;93930.38;;;6.80;100.00
11808;BME280;5961;42.640;23.380;2022-12-07T02:47:12;93922.63;;;6.75;100.00
11808;BME280;5961;42.640;23.380;2022-12-07T02:49:41;93925.41;;;6.79;100.00
11808;BME280;5961;42.640;23.380;2022-12-07T02:52:08;93946.88;;;6.86;100.00
11808;BME280;5961;42.640;23.380;2022-12-07T02:54:35;93918.75;;;6.73;100.00
11808;BME280;5961;42.640;23.380;2022-12-07T02:57:09;93940.94;;;6.72;100.00
11808;BME280;5961;42.640;23.380;2022-12-07T02:59:49;93939.25;;;6.76;100.00
11808;BME280;5961;42.640;23.380;2022-12-07T03:02:28;93871.34;;;6.33;100.00
11808;BME280;5961;42.640;23.380;2022-12-07T03:05:10;93929.13;;;6.69;100.00
11808;BME280;5961;42.640;23.380;2022-12-07T03:07:45;93917.16;;;6.63;100.00
11808;BME280;5961;42.640;23.380;2022-12-07T03:10:19;93916.22;;;6.59;100.00
11808;BME280;5961;42.640;23.380;2022-12-07T03:12:55;93917.50;;;6.61;100.00
11808;BME280;5961;42.640;23.380;2022-12-07T03:15:29;93872.13;;;6.34;100.00
11808;BME280;5961;42.640;23.380;2022-12-07T03:17:59;93913.28;;;6.69;100.00
11808;BME280;5961;42.640;23.380;2022-12-07T03:20:29;93912.84;;;6.67;100.00
11808;BME280;5961;42.640;23.380;2022-12-07T03:22:57;93907.69;;;6.62;100.00
11808;BME280;5961;42.640;23.380;2022-12-07T03:25:26;93904.28;;;6.70;100.00
11808;BME280;5961;42.640;23.380;2022-12-07T03:27:55;93908.63;;;6.75;100.00
11808;BME280;5961;42.640;23.380;2022-12-07T03:30:28;93904.75;;;6.72;100.00
11808;BME280;5961;42.640;23.380;2022-12-07T03:32:59;93905.69;;;6.76;100.00
11808;BME280;5961;42.640;23.380;2022-12-07T03:35:31;93910.81;;;6.81;100.00
11808;BME280;5961;42.640;23.380;2022-12-07T03:38:00;93914.41;;;6.85;100.00
11808;BME280;5961;42.640;23.380;2022-12-07T03:40:34;93914.41;;;6.85;100.00
11808;BME280;5961;42.640;23.380;2022-12-07T03:43:04;93912.03;;;6.84;100.00
11808;BME280;5961;42.640;23.380;2022-12-07T03:45:38;93916.41;;;6.80;100.00
11808;BME280;5961;42.640;23.380;2022-12-07T03:48:08;93914.41;;;6.77;100.00
11808;BME280;5961;42.640;23.380;2022-12-07T03:50:45;93910.34;;;6.79;100.00
11808;BME280;5961;42.640;23.380;2022-12-07T03:53:20;93911.88;;;6.80;100.00
11808;BME280;5961;42.640;23.380;2022-12-07T03:55:49;93914.69;;;6.84;100.00
11808;BME280;5961;42.640;23.380;2022-12-07T03:58:17;93902.25;;;6.84;100.00
11808;BME280;5961;42.640;23.380;2022-12-07T04:00:47;93903.03;;;6.85;100.00
11808;BME280;5961;42.640;23.380;2022-12-07T04:03:15;93909.13;;;6.85;100.00
11808;BME280;5961;42.640;23.380;2022-12-07T04:05:42;93908.78;;;6.87;100.00
11808;BME280;5961;42.640;23.380;2022-12-07T04:08:09;93900.06;;;6.86;100.00
11808;BME280;5961;42.640;23.380;2022-12-07T04:10:36;93903.22;;;6.88;100.00
11808;BME280;5961;42.640;23.380;2022-12-07T04:13:03;93906.47;;;6.85;100.00
11808;BME280;5961;42.640;23.380;2022-12-07T04:15:29;93905.38;;;6.86;100.00
11808;BME280;5961;42.640;23.380;2022-12-07T04:17:57;93905.53;;;6.90;100.00
11808;BME280;5961;42.640;23.380;2022-12-07T04:20:24;93909.72;;;6.91;100.00
11808;BME280;5961;42.640;23.380;2022-12-07T04:22:51;93901.47;;;6.92;100.00
11808;BME280;5961;42.640;23.380;2022-12-07T04:25:18;93885.94;;;6.91;100.00
11808;BME280;5961;42.640;23.380;2022-12-07T04:27:44;93907.25;;;6.94;100.00
11808;BME280;5961;42.640;23.380;2022-12-07T04:30:11;93904.75;;;6.89;100.00
11808;BME280;5961;42.640;23.380;2022-12-07T04:32:38;93902.88;;;6.90;100.00
11808;BME280;5961;42.640;23.380;2022-12-07T04:35:07;93908.50;;;6.88;100.00
11808;BME280;5961;42.640;23.380;2022-12-07T04:37:34;93911.59;;;6.90;100.00
11808;BME280;5961;42.640;23.380;2022-12-07T04:40:00;93917.50;;;6.87;100.00
11808;BME280;5961;42.640;23.380;2022-12-07T04:42:27;93918.13;;;6.84;100.00
11808;BME280;5961;42.640;23.380;2022-12-07T04:44:54;93918.28;;;6.88;100.00
11808;BME280;5961;42.640;23.380;2022-12-07T04:47:20;93910.66;;;6.86;100.00
11808;BME280;5961;42.640;23.380;2022-12-07T04:49:47;93912.50;;;6.77;100.00
11808;BME280;5961;42.640;23.380;2022-12-07T04:52:15;93918.28;;;6.79;100.00
11808;BME280;5961;42.640;23.380;2022-12-07T04:54:42;93921.22;;;6.78;100.00
11808;BME280;5961;42.640;23.380;2022-12-07T04:57:08;93918.13;;;6.76;100.00
11808;BME280;5961;42.640;23.380;2022-12-07T04:59:35;93918.28;;;6.79;100.00
11808;BME280;5961;42.640;23.380;2022-12-07T05:02:02;93920.91;;;6.79;100.00
11808;BME280;5961;42.640;23.380;2022-12-07T05:04:29;93916.41;;;6.80;100.00
11808;BME280;5961;42.640;23.380;2022-12-07T05:06:55;93910.50;;;6.74;100.00
11808;BME280;5961;42.640;23.380;2022-12-07T05:09:23;93903.81;;;6.68;100.00
11808;BME280;5961;42.640;23.380;2022-12-07T05:11:50;93918.75;;;6.73;100.00
11808;BME280;5961;42.640;23.380;2022-12-07T05:14:18;93918.41;;;6.74;100.00
11808;BME280;5961;42.640;23.380;2022-12-07T05:16:47;93906.44;;;6.68;100.00
11808;BME280;5961;42.640;23.380;2022-12-07T05:19:14;93918.75;;;6.73;100.00
11808;BME280;5961;42.640;23.380;2022-12-07T05:21:41;93887.03;;;6.47;100.00
11808;BME280;5961;42.640;23.380;2022-12-07T05:24:09;93922.47;;;6.72;100.00
11808;BME280;5961;42.640;23.380;2022-12-07T05:26:38;93921.22;;;6.69;100.00
11808;BME280;5961;42.640;23.380;2022-12-07T05:29:04;93916.84;;;6.56;100.00
11808;BME280;5961;42.640;23.380;2022-12-07T05:31:32;93915.59;;;6.62;100.00
11808;BME280;5961;42.640;23.380;2022-12-07T05:33:59;93918.25;;;6.62;100.00
11808;BME280;5961;42.640;23.380;2022-12-07T05:36:26;93920.28;;;6.65;100.00
11808;BME280;5961;42.640;23.380;2022-12-07T05:38:53;93923.06;;;6.60;100.00
11808;BME280;5961;42.640;23.380;2022-12-07T05:41:20;93922.44;;;6.54;100.00
11808;BME280;5961;42.640;23.380;2022-12-07T05:44:01;93902.41;;;6.53;100.00
11808;BME280;5961;42.640;23.380;2022-12-07T05:46:28;93898.97;;;6.44;100.00
11808;BME280;5961;42.640;23.380;2022-12-07T05:48:55;93902.41;;;6.45;100.00
11808;BME280;5961;42.640;23.380;2022-12-07T05:51:22;93907.06;;;6.48;100.00
11808;BME280;5961;42.640;23.380;2022-12-07T05:53:49;93911.56;;;6.47;100.00
11808;BME280;5961;42.640;23.380;2022-12-07T05:56:15;93907.84;;;6.57;100.00
11808;BME280;5961;42.640;23.380;2022-12-07T05:58:42;93901.78;;;6.56;100.00
11808;BME280;5961;42.640;23.380;2022-12-07T06:01:28;93905.03;;;6.53;100.00
11808;BME280;5961;42.640;23.380;2022-12-07T06:03:54;93903.34;;;6.57;100.00
11808;BME280;5961;42.640;23.380;2022-12-07T06:06:21;93902.56;;;6.57;100.00
11808;BME280;5961;42.640;23.380;2022-12-07T06:08:48;93903.66;;;6.56;100.00
11808;BME280;5961;42.640;23.380;2022-12-07T06:11:14;93889.97;;;6.45;100.00
11808;BME280;5961;42.640;23.380;2022-12-07T06:13:59;93903.34;;;6.57;100.00
11808;BME280;5961;42.640;23.380;2022-12-07T06:16:25;93903.66;;;6.56;100.00
11808;BME280;5961;42.640;23.380;2022-12-07T06:18:53;93900.88;;;6.52;100.00
11808;BME280;5961;42.640;23.380;2022-12-07T06:21:20;93922.28;;;6.59;100.00
11808;BME280;5961;42.640;23.380;2022-12-07T06:23:47;93908.94;;;6.56;100.00
11808;BME280;5961;42.640;23.380;2022-12-07T06:26:13;93912.84;;;6.58;100.00
11808;BME280;5961;42.640;23.380;2022-12-07T06:28:40;93917.78;;;6.60;100.00
11808;BME280;5961;42.640;23.380;2022-12-07T06:31:07;93921.66;;;6.62;100.00
11808;BME280;5961;42.640;23.380;2022-12-07T06:33:34;93915.16;;;6.60;100.00
11808;BME280;5961;42.640;23.380;2022-12-07T06:36:02;93922.91;;;6.65;100.00
11808;BME280;5961;42.640;23.380;2022-12-07T06:38:29;93917.34;;;6.67;100.00
11808;BME280;5961;42.640;23.380;2022-12-07T06:40:55;93919.97;;;6.67;100.00
11808;BME280;5961;42.640;23.380;2022-12-07T06:43:22;93922.78;;;6.70;100.00
11808;BME280;5961;42.640;23.380;2022-12-07T06:45:49;93905.66;;;6.59;100.00
11808;BME280;5961;42.640;23.380;2022-12-07T06:48:16;93923.69;;;6.74;100.00
11808;BME280;5961;42.640;23.380;2022-12-07T06:50:44;93932.88;;;6.77;100.00
11808;BME280;5961;42.640;23.380;2022-12-07T06:53:12;93928.34;;;6.77;100.00
11808;BME280;5961;42.640;23.380;2022-12-07T06:55:39;93924.63;;;6.78;100.00
11808;BME280;5961;42.640;23.380;2022-12-07T06:58:06;93923.56;;;6.79;100.00
11808;BME280;5961;42.640;23.380;2022-12-07T07:00:33;93927.59;;;6.85;100.00
11808;BME280;5961;42.640;23.380;2022-12-07T07:03:00;93924.63;;;6.87;100.00
11808;BME280;5961;42.640;23.380;2022-12-07T07:05:27;93930.06;;;6.90;100.00
11808;BME280;5961;42.640;23.380;2022-12-07T07:07:53;93926.50;;;6.86;100.00
11808;BME280;5961;42.640;23.380;2022-12-07T07:10:22;93932.25;;;6.88;100.00
11808;BME280;5961;42.640;23.380;2022-12-07T07:12:48;93814.66;;;6.14;100.00
11808;BME280;5961;42.640;23.380;2022-12-07T07:15:15;93925.88;;;6.89;100.00
11808;BME280;5961;42.640;23.380;2022-12-07T07:17:42;93929.63;;;6.88;100.00
11808;BME280;5961;42.640;23.380;2022-12-07T07:20:10;93928.69;;;6.84;100.00
11808;BME280;5961;42.640;23.380;2022-12-07T07:22:37;93933.78;;;6.89;100.00
11808;BME280;5961;42.640;23.380;2022-12-07T07:25:04;93934.91;;;6.88;100.00
11808;BME280;5961;42.640;23.380;2022-12-07T07:27:32;93932.41;;;6.83;100.00
11808;BME280;5961;42.640;23.380;2022-12-07T07:29:59;93939.56;;;6.91;100.00
11808;BME280;5961;42.640;23.380;2022-12-07T07:32:25;93935.38;;;6.90;100.00
11808;BME280;5961;42.640;23.380;2022-12-07T07:34:53;93935.97;;;6.96;100.00
11808;BME280;5961;42.640;23.380;2022-12-07T07:37:20;93941.25;;;6.96;100.00
11808;BME280;5961;42.640;23.380;2022-12-07T07:39:46;93950.91;;;7.00;100.00
11808;BME280;5961;42.640;23.380;2022-12-07T07:42:13;93945.00;;;7.03;100.00
11808;BME280;5961;42.640;23.380;2022-12-07T07:44:41;93933.66;;;7.03;100.00
11808;BME280;5961;42.640;23.380;2022-12-07T07:47:08;93939.25;;;7.10;100.00
11808;BME280;5961;42.640;23.380;2022-12-07T07:49:34;93938.00;;;7.16;100.00
11808;BME280;5961;42.640;23.380;2022-12-07T07:52:01;93939.09;;;7.06;100.00
11808;BME280;5961;42.640;23.380;2022-12-07T07:54:28;93944.03;;;7.16;100.00
11808;BME280;5961;42.640;23.380;2022-12-07T07:56:54;93943.13;;;7.21;100.00
11808;BME280;5961;42.640;23.380;2022-12-07T07:59:21;93937.06;;;7.21;100.00
11808;BME280;5961;42.640;23.380;2022-12-07T08:01:49;93934.56;;;7.24;100.00
11808;BME280;5961;42.640;23.380;2022-12-07T08:04:16;93943.09;;;7.30;100.00
11808;BME280;5961;42.640;23.380;2022-12-07T08:06:42;93948.09;;;7.31;100.00
11808;BME280;5961;42.640;23.380;2022-12-07T08:09:09;93944.19;;;7.29;100.00
11808;BME280;5961;42.640;23.380;2022-12-07T08:11:36;93943.75;;;7.18;100.00
11808;BME280;5961;42.640;23.380;2022-12-07T08:14:03;93937.69;;;7.17;100.00
11808;BME280;5961;42.640;23.380;2022-12-07T08:16:29;93940.03;;;7.19;100.00
11808;BME280;5961;42.640;23.380;2022-12-07T08:18:58;93939.09;;;7.15;100.00
11808;BME280;5961;42.640;23.380;2022-12-07T08:21:24;93935.66;;;7.23;100.00
11808;BME280;5961;42.640;23.380;2022-12-07T08:23:51;93932.72;;;7.25;100.00
11808;BME280;5961;42.640;23.380;2022-12-07T08:26:18;93936.91;;;7.17;100.00
11808;BME280;5961;42.640;23.380;2022-12-07T08:28:44;93933.94;;;7.27;100.00
11808;BME280;5961;42.640;23.380;2022-12-07T08:31:15;93932.09;;;7.28;100.00
11808;BME280;5961;42.640;23.380;2022-12-07T08:33:42;93930.66;;;7.30;100.00
11808;BME280;5961;42.640;23.380;2022-12-07T08:36:11;93897.44;;;7.03;100.00
11808;BME280;5961;42.640;23.380;2022-12-07T08:38:39;93934.56;;;7.33;100.00
11808;BME280;5961;42.640;23.380;2022-12-07T08:41:07;93928.31;;;7.29;100.00
11808;BME280;5961;42.640;23.380;2022-12-07T08:43:35;93889.34;;;7.08;100.00
11808;BME280;5961;42.640;23.380;2022-12-07T08:46:06;93938.75;;;7.42;100.00
11808;BME280;5961;42.640;23.380;2022-12-07T08:48:38;93929.41;;;7.45;100.00
11808;BME280;5961;42.640;23.380;2022-12-07T08:51:06;93931.13;;;7.49;100.00
11808;BME280;5961;42.640;23.380;2022-12-07T08:53:35;93928.59;;;7.53;100.00
11808;BME280;5961;42.640;23.380;2022-12-07T08:56:04;93927.06;;;7.52;100.00
11808;BME280;5961;42.640;23.380;2022-12-07T08:58:32;93927.81;;;7.61;100.00
11808;BME280;5961;42.640;23.380;2022-12-07T09:00:59;93924.06;;;7.62;100.00
11808;BME280;5961;42.640;23.380;2022-12-07T09:03:25;93912.41;;;7.63;100.00
11808;BME280;5961;42.640;23.380;2022-12-07T09:05:52;93898.88;;;7.56;100.00
11808;BME280;5961;42.640;23.380;2022-12-07T09:08:20;93922.78;;;7.68;100.00
11808;BME280;5961;42.640;23.380;2022-12-07T09:10:48;93918.44;;;7.72;100.00
11808;BME280;5961;42.640;23.380;2022-12-07T09:13:15;93906.63;;;7.69;100.00
11808;BME280;5961;42.640;23.380;2022-12-07T09:15:42;93922.31;;;7.74;100.00
11808;BME280;5961;42.640;23.380;2022-12-07T09:18:08;93916.72;;;7.76;100.00
11808;BME280;5961;42.640;23.380;2022-12-07T09:20:35;93898.34;;;7.71;100.00
11808;BME280;5961;42.640;23.380;2022-12-07T09:23:02;93899.00;;;7.68;100.00
11808;BME280;5961;42.640;23.380;2022-12-07T09:25:28;93897.91;;;7.69;100.00
11808;BME280;5961;42.640;23.380;2022-12-07T09:27:59;93877.56;;;7.61;100.00
11808;BME280;5961;42.640;23.380;2022-12-07T09:30:26;93870.09;;;7.63;100.00
11808;BME280;5961;42.640;23.380;2022-12-07T09:32:54;93895.56;;;7.76;100.00
11808;BME280;5961;42.640;23.380;2022-12-07T09:35:21;93904.38;;;7.80;100.00
11808;BME280;5961;42.640;23.380;2022-12-07T09:37:49;93877.84;;;7.68;100.00
11808;BME280;5961;42.640;23.380;2022-12-07T09:40:16;93882.75;;;7.87;100.00
11808;BME280;5961;42.640;23.380;2022-12-07T09:42:45;93864.72;;;7.80;100.00
11808;BME280;5961;42.640;23.380;2022-12-07T09:45:17;93876.50;;;7.91;100.00
11808;BME280;5961;42.640;23.380;2022-12-07T09:47:45;93871.81;;;7.97;100.00
11808;BME280;5961;42.640;23.380;2022-12-07T09:50:15;93871.81;;;7.97;99.95
11808;BME280;5961;42.640;23.380;2022-12-07T09:52:44;93872.41;;;8.02;99.82
11808;BME280;5961;42.640;23.380;2022-12-07T09:55:15;93867.41;;;8.01;99.34
11808;BME280;5961;42.640;23.380;2022-12-07T09:57:43;93872.69;;;8.01;99.87
11808;BME280;5961;42.640;23.380;2022-12-07T10:00:13;93863.81;;;8.05;100.00
11808;BME280;5961;42.640;23.380;2022-12-07T10:02:44;93860.09;;;8.06;99.23
11808;BME280;5961;42.640;23.380;2022-12-07T10:05:13;93862.84;;;8.10;99.24
11808;BME280;5961;42.640;23.380;2022-12-07T10:07:41;93862.84;;;8.10;99.08
11808;BME280;5961;42.640;23.380;2022-12-07T10:10:14;93859.25;;;8.14;99.36
11808;BME280;5961;42.640;23.380;2022-12-07T10:12:56;93854.88;;;8.18;99.10
11808;BME280;5961;42.640;23.380;2022-12-07T10:15:41;93851.75;;;8.16;98.85
11808;BME280;5961;42.640;23.380;2022-12-07T10:18:19;93846.41;;;8.25;99.09
11808;BME280;5961;42.640;23.380;2022-12-07T10:20:47;93859.16;;;8.32;99.04
11808;BME280;5961;42.640;23.380;2022-12-07T10:23:15;93844.34;;;8.39;97.97
11808;BME280;5961;42.640;23.380;2022-12-07T10:25:43;93841.47;;;8.44;97.24
11808;BME280;5961;42.640;23.380;2022-12-07T10:28:13;93839.53;;;8.53;97.35
11808;BME280;5961;42.640;23.380;2022-12-07T10:30:53;93834.81;;;8.59;97.32
11808;BME280;5961;42.640;23.380;2022-12-07T10:33:33;93843.31;;;8.73;96.21
11808;BME280;5961;42.640;23.380;2022-12-07T10:36:15;93835.72;;;8.83;95.78
11808;BME280;5961;42.640;23.380;2022-12-07T10:38:46;93816.38;;;8.83;95.40
11808;BME280;5961;42.640;23.380;2022-12-07T10:41:13;93822.38;;;8.92;95.10
11808;BME280;5961;42.640;23.380;2022-12-07T10:43:50;93825.03;;;8.92;94.09
11808;BME280;5961;42.640;23.380;2022-12-07T10:50:14;93812.47;;;9.01;94.07
11808;BME280;5961;42.640;23.380;2022-12-07T10:55:52;93815.16;;;9.13;92.80
11808;BME280;5961;42.640;23.380;2022-12-07T10:58:34;93805.75;;;9.16;93.13
11808;BME280;5961;42.640;23.380;2022-12-07T11:01:11;93804.66;;;9.17;93.06
11808;BME280;5961;42.640;23.380;2022-12-07T11:03:49;93789.53;;;9.17;92.79
11808;BME280;5961;42.640;23.380;2022-12-07T11:06:27;93774.06;;;9.07;92.65
11808;BME280;5961;42.640;23.380;2022-12-07T11:09:08;93794.06;;;9.17;92.84
11808;BME280;5961;42.640;23.380;2022-12-07T11:11:47;93779.25;;;9.16;92.95
11808;BME280;5961;42.640;23.380;2022-12-07T11:14:24;93782.88;;;8.99;93.57
11808;BME280;5961;42.640;23.380;2022-12-07T11:16:56;93785.31;;;9.04;93.70
11808;BME280;5961;42.640;23.380;2022-12-07T11:19:32;93799.72;;;9.15;93.50
11808;BME280;5961;42.640;23.380;2022-12-07T11:22:06;93787.00;;;9.21;92.89
11808;BME280;5961;42.640;23.380;2022-12-07T11:24:41;93767.56;;;9.17;92.84
11808;BME280;5961;42.640;23.380;2022-12-07T11:27:20;93789.53;;;9.17;92.94
11808;BME280;5961;42.640;23.380;2022-12-07T11:30:16;93783.47;;;9.17;93.29
11808;BME280;5961;42.640;23.380;2022-12-07T11:32:53;93747.13;;;9.17;93.35
11808;BME280;5961;42.640;23.380;2022-12-07T11:35:31;93743.91;;;9.12;92.93
11808;BME280;5961;42.640;23.380;2022-12-07T11:38:07;93759.28;;;9.18;92.67
11808;BME280;5961;42.640;23.380;2022-12-07T11:40:36;93755.50;;;9.19;93.21
11808;BME280;5961;42.640;23.380;2022-12-07T11:43:09;93752.19;;;9.22;93.58
11808;BME280;5961;42.640;23.380;2022-12-07T11:45:42;93727.00;;;9.16;92.64
11808;BME280;5961;42.640;23.380;2022-12-07T11:48:14;93742.06;;;9.24;92.76
11808;BME280;5961;42.640;23.380;2022-12-07T11:50:46;93746.78;;;9.31;92.79
11808;BME280;5961;42.640;23.380;2022-12-07T11:53:18;93739.72;;;9.35;92.67
11808;BME280;5961;42.640;23.380;2022-12-07T11:55:49;93732.56;;;9.35;91.77
11808;BME280;5961;42.640;23.380;2022-12-07T11:58:39;93737.19;;;9.38;91.98
11808;BME280;5961;42.640;23.380;2022-12-07T12:01:18;93739.50;;;9.40;91.64
11808;BME280;5961;42.640;23.380;2022-12-07T12:03:51;93723.50;;;9.36;91.71
11808;BME280;5961;42.640;23.380;2022-12-07T12:06:19;93733.66;;;9.47;90.86
11808;BME280;5961;42.640;23.380;2022-12-07T12:08:52;93729.25;;;9.51;91.02
11808;BME280;5961;42.640;23.380;2022-12-07T12:11:35;93730.22;;;9.58;91.35
11808;BME280;5961;42.640;23.380;2022-12-07T12:14:23;93719.16;;;9.68;90.88
11808;BME280;5961;42.640;23.380;2022-12-07T12:17:13;93721.28;;;9.75;89.96
11808;BME280;5961;42.640;23.380;2022-12-07T12:20:00;93710.09;;;9.81;89.71
11808;BME280;5961;42.640;23.380;2022-12-07T12:22:34;93708.88;;;9.91;89.65
11808;BME280;5961;42.640;23.380;2022-12-07T12:25:07;93709.91;;;10.26;89.63
11808;BME280;5961;42.640;23.380;2022-12-07T12:27:46;93712.66;;;10.73;85.71
11808;BME280;5961;42.640;23.380;2022-12-07T12:30:27;93716.84;;;11.33;84.11
11808;BME280;5961;42.640;23.380;2022-12-07T12:33:02;93717.13;;;11.94;80.92
11808;BME280;5961;42.640;23.380;2022-12-07T12:35:31;93717.59;;;12.73;77.78
11808;BME280;5961;42.640;23.380;2022-12-07T12:38:24;93697.34;;;13.33;73.36
11808;BME280;5961;42.640;23.380;2022-12-07T12:40:54;93701.81;;;13.74;71.57
11808;BME280;5961;42.640;23.380;2022-12-07T12:43:49;93699.13;;;14.01;70.67
11808;BME280;5961;42.640;23.380;2022-12-07T12:46:45;93696.78;;;14.25;70.03
11808;BME280;5961;42.640;23.380;2022-12-07T12:49:40;93691.06;;;14.57;68.10
11808;BME280;5961;42.640;23.380;2022-12-07T12:55:20;93702.44;;;15.61;65.87
11808;BME280;5961;42.640;23.380;2022-12-07T12:58:28;93700.47;;;16.09;63.18
11808;BME280;5961;42.640;23.380;2022-12-07T13:03:56;93690.44;;;16.67;59.77
11808;BME280;5961;42.640;23.380;2022-12-07T13:06:34;93700.84;;;16.90;59.41
11808;BME280;5961;42.640;23.380;2022-12-07T13:09:03;93697.78;;;16.91;58.30
11808;BME280;5961;42.640;23.380;2022-12-07T13:11:33;93692.06;;;17.11;57.91
11808;BME280;5961;42.640;23.380;2022-12-07T13:17:57;93696.34;;;17.40;56.29
11808;BME280;5961;42.640;23.380;2022-12-07T13:20:55;93705.59;;;17.60;56.31
11808;BME280;5961;42.640;23.380;2022-12-07T13:23:25;93700.97;;;17.85;55.46
11808;BME280;5961;42.640;23.380;2022-12-07T13:25:59;93699.41;;;18.02;54.37
11808;BME280;5961;42.640;23.380;2022-12-07T13:28:33;93703.25;;;18.12;53.66
11808;BME280;5961;42.640;23.380;2022-12-07T13:31:11;93696.31;;;18.14;53.66
11808;BME280;5961;42.640;23.380;2022-12-07T13:33:43;93694.81;;;18.09;53.96
11808;BME280;5961;42.640;23.380;2022-12-07T13:36:17;93695.56;;;18.14;53.78
11808;BME280;5961;42.640;23.380;2022-12-07T13:38:50;93690.94;;;18.25;53.61